Search for airport 
image banner adimage banner adimage banner ad
image banner ad

CL65 - H B P D

Located in Huntington Beach, United States

ICAO - CL65, IATA -

Data provided by Airmate  

General information

Coordinates: N33°41'43" W118°0'6"
Elevation is 56 feet MSL.
Magnetic variation is 14° East
View others Airports in California

Operational data

Special qualification required
Current time UTC:
Current local time:
Weather at : KSLI - Los Alamitos Aaf ( 11 km )
METAR: KSLI 211158Z AUTO 14004KT 8SM OVC011 17/16 A2994 RMK AO2 SLP142 T01710158 10171 20164 53008
TAF: TAF KSLI 210500Z 2105/2211 VRB06KT 9999 SCT010 QNH2990INS BECMG 2110/2111 VRB06KT 9000 BR OVC010 QNH2991INS BECMG 2116/2117 VRB06KT 9999 NSW SCT010 QNH2990INS BECMG 2209/2210 VRB06KT 9000 BR BKN010 QNH2991INS TX20/2105Z TN15/2114Z
View NOTAMs / SUP AIP / TFR affecting this airport [VIEW]
Communications frequencies: [VIEW]

Runways:

Airport contact information

Address: Huntington Beach United States

Satellite view of CL65